Aviation Digital Data Service (ADDS)

Output produced by METARs form (1230 UTC 16 July 2019)
found at http://www.aviationweather.gov/metar/data/
 
FMMI 161200Z 16013KT 110V190 9999 SCT020 17/11 Q1028 NOSIG
TAF FMMI 161100Z 1612/1718 14012KT 9999 SCT017 BKN020 
     PROB30 
     TEMPO 1612/1618 4000 DZRA 
     PROB30 
     TEMPO 1700/1705 4500 DZRA
       
FMNA 161200Z 14022G33KT 9999 FEW020 28/15 Q1017
TAF FMNA 161100Z 1612/1712 14014KT 9999 FEW020 
     TEMPO 1612/1618 14024G34KT 
     TEMPO 1707/1712 14024G34KT
       
FMNM 161200Z 14012G22KT 120V180 9999 SCT023 BKN040 29/15 Q1018 NOSIG
TAF FMNM 161100Z 1612/1712 14012KT 9999 FEW023
       
FMNN 161200Z 24006KT 9999 FEW020 29/18 Q1018
TAF FMNN 161100Z 1612/1712 26010KT 9999 FEW020 
     BECMG 1618/1620 06004KT
       
FMMS 161200Z 14008KT 9999 SCT017 26/16 Q1024
TAF FMMS 161100Z 1612/1712 16010KT 9999 FEW017 BKN017 
     PROB40 
     TEMPO 1612/1706 4000 SHRA 
     PROB40 
     TEMPO 1612/1709 16020G32KT
       
FMMT 161213Z 17009KT 140V200 3500 SHRA SCT017 BKN032 21/19 Q1025 TEMPO 6000 -SHRA
TAF FMMT 161100Z 1612/1712 14010KT 9000 FEW007 SCT017 BKN033 
     TEMPO 1612/1712 3500 SHRA
       
FMSD 161200Z 08016KT 9999 SCT020 SCT033 23/17 Q1027
TAF FMSD 161100Z 1612/1712 08017KT 9999 SCT016 SCT033 
     PROB30 
     TEMPO 1612/1706 4500 SHRA
       
TAF FMST 161100Z 1612/1712 22010KT 9999 FEW023 
     BECMG 1618/1620 08007KT